Time;durP1;ratioP1;P1;durP2;ratioP2;P2;SDS_P1;SDS_P2;PMS_P1;PMS_P2;Temp;Humidity;BMP_temperature;BMP_pressure;BME280_temperature;BME280_humidity;BME280_pressure;Samples;Min_cycle;Max_cycle;Signal;HPM_P1;HPM_P2
2022/03/14 00:00:37;;;;;;;1.50;0.80;;;12.50;67.10;;;;;;2060923;28;20037;-89
2022/03/14 00:01:38;;;;;;;1.45;0.68;;;12.50;67.10;;;;;;2056817;28;20481;-89
2022/03/14 00:02:39;;;;;;;1.13;0.70;;;12.50;67.10;;;;;;2063415;28;20038;-89
2022/03/14 00:03:58;;;;;;;1.80;0.90;;;12.50;67.20;;;;;;2073047;28;20065;-90
2022/03/14 00:05:00;;;;;;;1.42;0.80;;;12.50;67.20;;;;;;2065247;28;20033;-89
2022/03/14 00:06:01;;;;;;;1.20;0.80;;;12.50;67.20;;;;;;2048007;28;20131;-89
2022/03/14 00:07:02;;;;;;;1.48;0.70;;;12.50;67.20;;;;;;2054816;28;20485;-89
2022/03/14 00:08:03;;;;;;;1.25;0.80;;;12.50;67.20;;;;;;2063388;28;20038;-89
2022/03/14 00:09:07;;;;;;;1.92;0.68;;;12.50;67.20;;;;;;2071626;28;20026;-89
2022/03/14 00:10:09;;;;;;;1.05;0.60;;;12.50;67.20;;;;;;2068246;28;20026;-89
2022/03/14 00:11:10;;;;;;;0.88;0.57;;;12.50;67.20;;;;;;2065229;28;20153;-88
2022/03/14 00:12:13;;;;;;;1.20;0.70;;;12.50;67.20;;;;;;2064907;28;20507;-89
2022/03/14 00:13:16;;;;;;;1.00;0.60;;;12.40;67.10;;;;;;2063433;28;20046;-89
2022/03/14 00:14:17;;;;;;;0.80;0.60;;;12.50;67.20;;;;;;2057662;28;20038;-89
2022/03/14 00:15:18;;;;;;;1.33;0.70;;;12.50;67.20;;;;;;2057252;28;20031;-89
2022/03/14 00:16:25;;;;;;;1.83;0.70;;;12.40;67.20;;;;;;2063286;28;20081;-89
2022/03/14 00:17:26;;;;;;;1.20;0.70;;;12.40;67.20;;;;;;2066188;28;20029;-89
2022/03/14 00:18:29;;;;;;;0.85;0.60;;;12.50;67.90;;;;;;2065782;28;20603;-89
2022/03/14 00:19:31;;;;;;;1.67;0.90;;;12.40;67.30;;;;;;2072956;28;20033;-89
2022/03/14 00:20:32;;;;;;;1.00;0.60;;;12.40;67.40;;;;;;2072918;28;20519;-89
2022/03/14 00:21:38;;;;;;;1.33;0.70;;;12.40;67.40;;;;;;2064635;28;20042;-88
2022/03/14 00:22:40;;;;;;;0.90;0.70;;;12.40;67.40;;;;;;2067785;28;20022;-89
2022/03/14 00:23:41;;;;;;;1.02;0.60;;;12.40;67.40;;;;;;2056513;28;20464;-90
2022/03/14 00:24:41;;;;;;;1.30;0.80;;;12.40;67.40;;;;;;2057482;28;20031;-89
2022/03/14 00:25:42;;;;;;;1.10;0.75;;;12.40;67.40;;;;;;2071291;28;20030;-89
2022/03/14 00:26:42;;;;;;;1.00;0.60;;;12.40;67.40;;;;;;2064042;28;20030;-89
2022/03/14 00:27:43;;;;;;;1.30;0.75;;;12.40;67.50;;;;;;2063908;28;20033;-89
2022/03/14 00:28:45;;;;;;;1.20;0.60;;;12.40;67.50;;;;;;2056553;28;20462;-89
2022/03/14 00:29:45;;;;;;;1.02;0.70;;;12.40;67.50;;;;;;2062982;28;20042;-89
2022/03/14 00:30:46;;;;;;;0.93;0.70;;;12.40;67.50;;;;;;2056633;28;20427;-89
2022/03/14 00:31:47;;;;;;;0.82;0.60;;;12.40;67.50;;;;;;2056477;28;20438;-89
2022/03/14 00:32:48;;;;;;;1.30;0.73;;;12.40;67.60;;;;;;2067193;28;20041;-89
2022/03/14 00:33:49;;;;;;;1.10;0.70;;;12.30;67.60;;;;;;2072853;28;20030;-89
2022/03/14 00:34:49;;;;;;;1.00;0.50;;;12.30;67.60;;;;;;2072887;28;20050;-88
2022/03/14 00:35:50;;;;;;;1.25;0.60;;;12.30;67.60;;;;;;2071100;28;20050;-88
2022/03/14 00:36:51;;;;;;;1.50;0.60;;;12.30;67.60;;;;;;2063121;28;20084;-89
2022/03/14 00:37:51;;;;;;;0.90;0.52;;;12.30;67.60;;;;;;2056622;28;20019;-89
2022/03/14 00:38:54;;;;;;;0.90;0.60;;;12.30;68.20;;;;;;2072860;28;20064;-89
2022/03/14 00:39:55;;;;;;;1.30;0.60;;;12.30;67.70;;;;;;2072198;28;20033;-89
2022/03/14 00:40:56;;;;;;;0.63;0.50;;;12.30;67.70;;;;;;2072405;28;20049;-89
2022/03/14 00:41:57;;;;;;;0.90;0.50;;;12.30;67.80;;;;;;2056468;28;20031;-89
2022/03/14 00:42:58;;;;;;;0.77;0.57;;;12.30;67.80;;;;;;2043148;28;20114;-89
2022/03/14 00:43:59;;;;;;;1.17;0.60;;;12.30;67.80;;;;;;2055962;28;20050;-89
2022/03/14 00:44:59;;;;;;;1.00;0.63;;;12.30;67.80;;;;;;2070369;28;20034;-89
2022/03/14 00:46:00;;;;;;;0.93;0.65;;;12.20;67.80;;;;;;2073847;28;20029;-89
2022/03/14 00:47:01;;;;;;;0.90;0.60;;;12.30;67.90;;;;;;2072212;28;20152;-89
2022/03/14 00:48:02;;;;;;;1.23;0.65;;;12.30;67.90;;;;;;2073939;28;20030;-88
2022/03/14 00:49:02;;;;;;;0.95;0.65;;;12.30;68.00;;;;;;2058296;28;20034;-89
2022/03/14 00:50:03;;;;;;;0.73;0.50;;;12.30;68.00;;;;;;2065920;28;20533;-89
2022/03/14 00:51:05;;;;;;;1.27;0.75;;;12.20;68.00;;;;;;2074381;28;20080;-89
2022/03/14 00:52:06;;;;;;;0.80;0.50;;;12.30;68.10;;;;;;2066250;28;20501;-89
2022/03/14 00:53:08;;;;;;;1.30;0.75;;;12.30;68.10;;;;;;2065992;28;20026;-89
2022/03/14 00:54:09;;;;;;;0.95;0.60;;;12.20;68.10;;;;;;2075918;28;20025;-89
2022/03/14 00:55:09;;;;;;;0.80;0.60;;;12.30;68.80;;;;;;2079360;28;20125;-89
2022/03/14 00:56:10;;;;;;;0.82;0.50;;;12.30;68.20;;;;;;2075018;28;20034;-89
2022/03/14 00:57:12;;;;;;;0.90;0.65;;;12.30;68.20;;;;;;2076170;28;20814;-89
2022/03/14 00:58:12;;;;;;;1.60;0.65;;;12.20;68.20;;;;;;2075361;28;20545;-89
2022/03/14 00:59:13;;;;;;;0.98;0.60;;;12.20;68.20;;;;;;2067931;28;20125;-89
2022/03/14 01:00:14;;;;;;;0.85;0.60;;;12.20;68.20;;;;;;2068020;28;20113;-89
2022/03/14 01:01:14;;;;;;;0.82;0.50;;;12.20;68.20;;;;;;2059465;28;20041;-88
2022/03/14 01:02:15;;;;;;;0.60;0.50;;;12.20;68.30;;;;;;2057352;28;20102;-88
2022/03/14 01:03:16;;;;;;;0.88;0.65;;;12.20;68.30;;;;;;2065744;28;20118;-89
2022/03/14 01:04:16;;;;;;;1.30;0.60;;;12.20;68.40;;;;;;2061274;28;20129;-89
2022/03/14 01:05:17;;;;;;;0.98;0.52;;;12.20;68.40;;;;;;2050287;28;20027;-89
2022/03/14 01:06:18;;;;;;;0.82;0.60;;;12.20;68.50;;;;;;2062272;28;20031;-89
2022/03/14 01:07:19;;;;;;;0.82;0.50;;;12.20;68.50;;;;;;2074108;28;20467;-89
2022/03/14 01:08:19;;;;;;;0.60;0.50;;;12.10;69.10;;;;;;2066115;28;20037;-89
2022/03/14 01:09:20;;;;;;;0.70;0.50;;;12.20;68.60;;;;;;2065328;28;20049;-89
2022/03/14 01:10:22;;;;;;;0.82;0.60;;;12.10;68.60;;;;;;2070097;28;20104;-90
2022/03/14 01:11:22;;;;;;;0.70;0.50;;;12.10;68.70;;;;;;2072044;28;20038;-89
2022/03/14 01:12:23;;;;;;;0.90;0.60;;;12.20;68.80;;;;;;2071639;28;20034;-89
2022/03/14 01:13:24;;;;;;;0.80;0.60;;;12.10;68.80;;;;;;2069449;28;20030;-89
2022/03/14 01:14:25;;;;;;;1.00;0.70;;;12.20;69.40;;;;;;2072828;28;20037;-89
2022/03/14 01:15:26;;;;;;;0.77;0.52;;;12.20;68.90;;;;;;2073529;28;20064;-89
2022/03/14 01:16:26;;;;;;;0.55;0.50;;;12.10;68.80;;;;;;2073854;28;20065;-89
2022/03/14 01:17:27;;;;;;;1.98;0.63;;;12.10;68.90;;;;;;2065609;28;20038;-89
2022/03/14 01:18:28;;;;;;;1.52;0.80;;;12.10;68.90;;;;;;2058123;28;20453;-89
2022/03/14 01:19:29;;;;;;;1.10;0.73;;;12.10;69.10;;;;;;2065973;28;20038;-89
2022/03/14 01:20:29;;;;;;;1.00;0.70;;;12.10;69.00;;;;;;2062312;28;20041;-89
2022/03/14 01:21:31;;;;;;;1.17;0.60;;;12.10;69.10;;;;;;2053050;28;20058;-89
2022/03/14 01:22:32;;;;;;;1.20;0.70;;;12.10;69.10;;;;;;2064366;28;20033;-89
2022/03/14 01:23:33;;;;;;;1.08;0.73;;;12.10;69.20;;;;;;2073183;28;20040;-89
2022/03/14 01:24:38;;;;;;;1.98;0.70;;;12.10;69.20;;;;;;2072976;28;20061;-89
2022/03/14 01:25:39;;;;;;;0.90;0.60;;;12.10;69.30;;;;;;2065883;28;20073;-89
2022/03/14 01:26:40;;;;;;;0.93;0.60;;;12.10;70.00;;;;;;2066291;28;20042;-89
2022/03/14 01:27:40;;;;;;;1.05;0.60;;;12.10;69.40;;;;;;2074370;28;20030;-89
2022/03/14 01:28:41;;;;;;;0.93;0.60;;;12.10;69.50;;;;;;2074451;28;20058;-89
2022/03/14 01:29:42;;;;;;;1.10;0.57;;;12.00;69.40;;;;;;2073277;28;20030;-89
2022/03/14 01:30:44;;;;;;;0.75;0.60;;;12.10;69.50;;;;;;2071605;28;20057;-89
2022/03/14 01:31:45;;;;;;;0.90;0.60;;;12.00;69.50;;;;;;2064247;28;20034;-89
2022/03/14 01:32:46;;;;;;;1.10;0.80;;;12.00;69.60;;;;;;2065991;28;20125;-89
2022/03/14 01:33:47;;;;;;;0.98;0.70;;;12.00;69.70;;;;;;2065871;28;20409;-88
2022/03/14 01:34:47;;;;;;;0.98;0.70;;;12.00;69.70;;;;;;2073528;28;20033;-89
2022/03/14 01:35:48;;;;;;;0.90;0.50;;;12.00;69.80;;;;;;2074612;28;20094;-89
2022/03/14 01:36:48;;;;;;;1.80;0.77;;;12.00;69.80;;;;;;2074762;28;20058;-89
2022/03/14 01:37:52;;;;;;;0.88;0.65;;;12.00;69.90;;;;;;2065831;28;20448;-89
2022/03/14 01:38:53;;;;;;;1.45;0.70;;;12.00;70.00;;;;;;2058327;28;20031;-89
2022/03/14 01:39:54;;;;;;;1.30;0.80;;;11.90;69.90;;;;;;2066426;28;20030;-89
2022/03/14 01:40:55;;;;;;;1.02;0.68;;;12.00;70.00;;;;;;2065902;28;20031;-89
2022/03/14 01:41:57;;;;;;;1.95;0.80;;;12.00;70.10;;;;;;2058929;28;20588;-89
2022/03/14 01:42:58;;;;;;;1.00;0.63;;;11.90;70.00;;;;;;2072688;28;20496;-89
2022/03/14 01:44:01;;;;;;;0.98;0.70;;;12.00;70.10;;;;;;2065759;28;20053;-89
2022/03/14 01:45:04;;;;;;;1.30;0.70;;;11.90;70.10;;;;;;2057569;28;20207;-89
2022/03/14 01:46:05;;;;;;;1.00;0.70;;;11.90;70.10;;;;;;2064429;28;20548;-89
2022/03/14 01:47:05;;;;;;;1.17;0.60;;;11.90;70.10;;;;;;2065882;28;20034;-89
2022/03/14 01:48:06;;;;;;;0.95;0.63;;;11.90;70.10;;;;;;2068847;28;20380;-89
2022/03/14 01:49:07;;;;;;;1.23;0.73;;;11.90;70.20;;;;;;2065684;28;20153;-89
2022/03/14 01:50:08;;;;;;;1.00;0.60;;;11.90;70.20;;;;;;2065783;28;20038;-89
2022/03/14 01:51:09;;;;;;;0.90;0.70;;;11.90;70.20;;;;;;2081069;28;20491;-88
2022/03/14 01:52:11;;;;;;;1.30;0.70;;;11.90;70.20;;;;;;2065040;28;20041;-89
2022/03/14 01:53:12;;;;;;;1.30;0.63;;;11.90;70.30;;;;;;2065168;28;20038;-89
2022/03/14 01:54:13;;;;;;;1.05;0.75;;;11.90;70.30;;;;;;2065718;28;20031;-89
2022/03/14 01:55:14;;;;;;;0.93;0.63;;;11.90;70.30;;;;;;2048793;28;20020;-88
2022/03/14 01:56:15;;;;;;;1.05;0.70;;;11.90;70.30;;;;;;2065708;28;20045;-89
2022/03/14 01:57:16;;;;;;;1.17;0.68;;;11.90;70.30;;;;;;2081717;28;20022;-89
2022/03/14 01:58:17;;;;;;;1.17;0.70;;;11.90;70.40;;;;;;2065357;28;20026;-89
2022/03/14 01:59:19;;;;;;;1.42;0.70;;;11.90;70.40;;;;;;2057389;28;20049;-89
2022/03/14 02:00:20;;;;;;;1.60;0.80;;;11.90;70.40;;;;;;2061831;28;20050;-89
2022/03/14 02:01:21;;;;;;;1.80;0.80;;;11.90;70.40;;;;;;2057704;28;20081;-89
2022/03/14 02:02:22;;;;;;;1.52;0.90;;;11.90;70.50;;;;;;2064225;28;20028;-89
2022/03/14 02:03:23;;;;;;;1.27;0.77;;;11.90;70.60;;;;;;2071450;28;20436;-88
2022/03/14 02:04:24;;;;;;;1.10;0.70;;;11.90;70.60;;;;;;2065133;28;20457;-89
2022/03/14 02:05:24;;;;;;;2.22;0.70;;;11.90;70.70;;;;;;2057924;28;20035;-89
2022/03/14 02:06:27;;;;;;;1.20;0.80;;;11.90;70.70;;;;;;2059553;28;20048;-89
2022/03/14 02:07:28;;;;;;;1.20;0.80;;;11.90;70.80;;;;;;2066100;28;20022;-89
2022/03/14 02:08:29;;;;;;;2.30;1.10;;;11.80;70.80;;;;;;2074009;28;20070;-89
2022/03/14 02:09:30;;;;;;;1.48;0.90;;;11.90;70.80;;;;;;2072970;28;20042;-89
2022/03/14 02:10:30;;;;;;;1.17;0.75;;;11.80;70.80;;;;;;2073158;28;20026;-89
2022/03/14 02:11:31;;;;;;;1.50;0.90;;;11.80;70.90;;;;;;2074352;28;20128;-89
2022/03/14 02:12:32;;;;;;;1.42;0.80;;;11.80;70.90;;;;;;2072393;28;20400;-89
2022/03/14 02:13:32;;;;;;;0.80;0.70;;;11.80;70.90;;;;;;2067140;28;20038;-89
2022/03/14 02:14:42;;;;;;;0.88;0.75;;;11.80;70.90;;;;;;2065709;28;20034;-89
2022/03/14 02:15:45;;;;;;;2.00;1.00;;;11.80;71.00;;;;;;2065875;28;20544;-88
2022/03/14 02:16:45;;;;;;;1.90;1.00;;;11.80;71.00;;;;;;2067783;28;20026;-89
2022/03/14 02:17:46;;;;;;;1.38;0.82;;;11.80;71.00;;;;;;2074266;28;20026;-89
2022/03/14 02:18:47;;;;;;;2.25;0.90;;;11.80;71.10;;;;;;2073797;28;20030;-89
2022/03/14 02:19:47;;;;;;;0.80;0.70;;;11.80;71.10;;;;;;2065074;28;20023;-89
2022/03/14 02:20:48;;;;;;;1.15;0.80;;;11.80;71.20;;;;;;2070752;28;20113;-89
2022/03/14 02:21:49;;;;;;;1.35;0.88;;;11.80;71.20;;;;;;2073143;28;20034;-89
2022/03/14 02:22:50;;;;;;;1.25;0.80;;;11.80;71.20;;;;;;2059205;28;20030;-89
2022/03/14 02:23:50;;;;;;;1.55;0.88;;;11.80;71.30;;;;;;2041366;29;20545;-89
2022/03/14 02:24:54;;;;;;;1.30;0.80;;;11.80;71.30;;;;;;2041544;29;20031;-89
2022/03/14 02:25:55;;;;;;;1.30;0.85;;;11.80;71.30;;;;;;2072196;28;20030;-89
2022/03/14 02:26:57;;;;;;;1.95;1.02;;;11.80;71.30;;;;;;2073548;28;20030;-89
2022/03/14 02:27:57;;;;;;;1.20;0.77;;;11.80;71.30;;;;;;2078032;28;20102;-89
2022/03/14 02:28:58;;;;;;;1.40;0.90;;;11.80;71.30;;;;;;2065425;28;20073;-89
2022/03/14 02:29:59;;;;;;;1.65;0.90;;;11.80;71.30;;;;;;2064037;28;20089;-88
2022/03/14 02:31:03;;;;;;;1.52;0.90;;;11.80;71.40;;;;;;2071526;28;20026;-89
2022/03/14 02:32:05;;;;;;;1.73;0.85;;;11.80;71.40;;;;;;2075644;28;20535;-88
2022/03/14 02:33:07;;;;;;;1.48;0.90;;;11.80;71.40;;;;;;2072142;28;20121;-89
2022/03/14 02:34:08;;;;;;;1.50;0.82;;;11.80;71.50;;;;;;2072180;28;20419;-89
2022/03/14 02:35:10;;;;;;;1.50;1.00;;;11.80;71.50;;;;;;2070134;28;20096;-89
2022/03/14 02:36:10;;;;;;;2.63;1.00;;;11.80;71.60;;;;;;2061817;28;20475;-88
2022/03/14 02:37:11;;;;;;;1.38;0.90;;;11.80;71.60;;;;;;2072963;28;20125;-88
2022/03/14 02:38:14;;;;;;;1.40;0.80;;;11.80;71.70;;;;;;2073187;28;20018;-89
2022/03/14 02:39:15;;;;;;;1.77;1.10;;;11.80;71.70;;;;;;2072526;28;20054;-89
2022/03/14 02:40:16;;;;;;;1.35;0.90;;;11.80;71.70;;;;;;2064098;28;20031;-88
2022/03/14 02:41:17;;;;;;;1.90;1.00;;;11.80;71.80;;;;;;2065254;28;20050;-89
2022/03/14 02:42:17;;;;;;;1.77;1.08;;;11.80;71.80;;;;;;2073482;28;20140;-89
2022/03/14 02:43:23;;;;;;;1.52;1.00;;;11.70;71.80;;;;;;2069752;28;20424;-89
2022/03/14 02:44:24;;;;;;;1.63;0.90;;;11.70;71.80;;;;;;2071513;28;20036;-89
2022/03/14 02:45:24;;;;;;;2.25;1.10;;;11.70;71.80;;;;;;2073555;28;20408;-89
2022/03/14 02:46:25;;;;;;;1.77;1.15;;;11.70;72.50;;;;;;2072485;28;20169;-88
2022/03/14 02:47:26;;;;;;;1.45;0.95;;;11.70;71.90;;;;;;2065409;28;20030;-89
2022/03/14 02:48:27;;;;;;;1.85;1.00;;;11.70;71.90;;;;;;2065372;28;20461;-89
2022/03/14 02:49:28;;;;;;;1.38;1.00;;;11.70;72.00;;;;;;2072973;28;20026;-89
2022/03/14 02:50:29;;;;;;;1.38;0.95;;;11.70;72.70;;;;;;2072156;28;20076;-88
2022/03/14 02:51:29;;;;;;;1.50;1.00;;;11.70;72.10;;;;;;2073339;28;20104;-89
2022/03/14 02:52:31;;;;;;;1.58;1.10;;;11.60;72.10;;;;;;2065547;28;20030;-89
2022/03/14 02:53:31;;;;;;;1.77;1.10;;;11.70;72.20;;;;;;2064978;28;20027;-89
2022/03/14 02:54:32;;;;;;;1.80;1.02;;;11.60;72.30;;;;;;2064096;28;20033;-89
2022/03/14 02:55:32;;;;;;;1.83;0.90;;;11.60;72.30;;;;;;2073490;28;20122;-89
2022/03/14 02:56:34;;;;;;;2.00;1.20;;;11.60;72.30;;;;;;2072883;28;20408;-89
2022/03/14 02:57:34;;;;;;;1.98;1.20;;;11.70;72.40;;;;;;2072307;28;20034;-89
2022/03/14 02:58:38;;;;;;;1.70;1.13;;;11.60;72.40;;;;;;2057417;28;20031;-89
2022/03/14 02:59:39;;;;;;;1.50;0.90;;;11.70;72.50;;;;;;2065287;28;20034;-89
2022/03/14 03:00:39;;;;;;;1.77;0.93;;;11.60;72.50;;;;;;2072601;28;20126;-89
2022/03/14 03:01:40;;;;;;;1.92;1.17;;;11.60;72.60;;;;;;2063285;28;20424;-89
2022/03/14 03:02:42;;;;;;;1.55;1.00;;;11.60;72.60;;;;;;2065171;28;20045;-89
2022/03/14 03:03:43;;;;;;;1.70;1.15;;;11.60;72.70;;;;;;2057616;28;20109;-89
2022/03/14 03:04:44;;;;;;;1.27;0.85;;;11.60;72.70;;;;;;2067207;28;20102;-89
2022/03/14 03:05:45;;;;;;;2.88;1.35;;;11.60;72.90;;;;;;2073340;28;20042;-89
2022/03/14 03:06:45;;;;;;;1.70;1.02;;;11.60;73.10;;;;;;2073345;28;20133;-89
2022/03/14 03:07:47;;;;;;;1.67;1.00;;;11.50;73.20;;;;;;2064641;28;20389;-89
2022/03/14 03:08:49;;;;;;;1.35;0.85;;;11.50;73.40;;;;;;2065515;28;20096;-89
2022/03/14 03:09:50;;;;;;;1.30;0.90;;;11.50;73.60;;;;;;2072560;28;20092;-89
2022/03/14 03:10:50;;;;;;;1.85;1.20;;;11.50;73.80;;;;;;2068610;28;20026;-90
2022/03/14 03:11:51;;;;;;;2.15;1.00;;;11.40;74.00;;;;;;2053575;28;20089;-89
2022/03/14 03:12:52;;;;;;;1.60;1.17;;;11.40;74.20;;;;;;2056854;28;20114;-89
2022/03/14 03:13:54;;;;;;;1.63;1.00;;;11.40;74.40;;;;;;2062339;28;20030;-89
2022/03/14 03:14:55;;;;;;;1.95;1.00;;;11.30;74.60;;;;;;2064988;28;20472;-89
2022/03/14 03:15:56;;;;;;;2.60;1.27;;;11.30;74.70;;;;;;2065070;28;20109;-89
2022/03/14 03:16:56;;;;;;;1.73;1.00;;;11.30;74.90;;;;;;2064157;28;20037;-89
2022/03/14 03:17:57;;;;;;;1.98;1.20;;;11.20;75.10;;;;;;2049146;28;20359;-88
2022/03/14 03:18:58;;;;;;;1.63;1.10;;;11.20;75.20;;;;;;2058036;28;20556;-89
2022/03/14 03:19:59;;;;;;;2.03;1.17;;;11.20;76.00;;;;;;2065255;28;20034;-89
2022/03/14 03:20:59;;;;;;;1.92;1.10;;;11.20;75.50;;;;;;2069841;28;20037;-89
2022/03/14 03:22:00;;;;;;;1.90;1.10;;;11.20;75.60;;;;;;2072909;28;20034;-89
2022/03/14 03:23:01;;;;;;;1.40;1.08;;;11.10;75.60;;;;;;2056771;28;20031;-89
2022/03/14 03:24:04;;;;;;;2.13;1.25;;;11.10;75.80;;;;;;2065293;28;20547;-89
2022/03/14 03:25:06;;;;;;;1.73;1.00;;;11.10;75.80;;;;;;2073233;28;20030;-89
2022/03/14 03:26:07;;;;;;;2.40;1.23;;;11.10;75.90;;;;;;2065400;28;20025;-89
2022/03/14 03:27:08;;;;;;;2.00;1.23;;;11.10;76.00;;;;;;2064968;28;20468;-89
2022/03/14 03:28:09;;;;;;;2.03;1.30;;;11.00;76.00;;;;;;2058319;28;20035;-89
2022/03/14 03:29:10;;;;;;;2.00;1.20;;;11.10;76.20;;;;;;2057268;28;20027;-89
2022/03/14 03:30:11;;;;;;;1.70;1.00;;;11.10;76.30;;;;;;2063470;28;20054;-89
2022/03/14 03:31:18;;;;;;;1.85;1.15;;;11.10;76.40;;;;;;2064141;28;20034;-88
2022/03/14 03:32:19;;;;;;;1.90;1.08;;;11.00;76.40;;;;;;2057966;28;20027;-89
2022/03/14 03:33:20;;;;;;;2.15;1.00;;;11.00;76.40;;;;;;2065090;28;20038;-89
2022/03/14 03:34:20;;;;;;;1.48;1.00;;;11.00;76.50;;;;;;2070503;28;20120;-89
2022/03/14 03:35:21;;;;;;;1.92;1.10;;;11.00;76.60;;;;;;2073397;28;20488;-89
2022/03/14 03:36:21;;;;;;;1.90;1.10;;;11.00;76.60;;;;;;2072433;28;20036;-89
2022/03/14 03:37:22;;;;;;;1.92;1.15;;;11.00;76.70;;;;;;2065180;28;20113;-89
2022/03/14 03:38:23;;;;;;;2.08;1.17;;;11.00;76.70;;;;;;2073178;28;20026;-89
2022/03/14 03:39:23;;;;;;;1.42;1.02;;;11.00;76.80;;;;;;2072716;28;20018;-89
2022/03/14 03:40:24;;;;;;;2.13;1.35;;;11.00;76.80;;;;;;2061589;28;20121;-89
2022/03/14 03:41:25;;;;;;;1.98;1.10;;;11.00;76.80;;;;;;2072768;28;20045;-89
2022/03/14 03:42:26;;;;;;;1.83;1.30;;;11.00;76.80;;;;;;2073977;28;20101;-89
2022/03/14 03:43:26;;;;;;;2.63;1.25;;;11.10;76.90;;;;;;2073096;28;20030;-89
2022/03/14 03:44:28;;;;;;;1.88;1.20;;;11.00;76.90;;;;;;2056847;28;20126;-89
2022/03/14 03:45:29;;;;;;;2.20;1.30;;;11.00;76.90;;;;;;2049266;28;20043;-89
2022/03/14 03:46:29;;;;;;;1.80;1.10;;;11.10;77.00;;;;;;2051365;28;20395;-89
2022/03/14 03:47:30;;;;;;;1.55;1.15;;;11.00;77.00;;;;;;2057379;28;20133;-89
2022/03/14 03:48:31;;;;;;;2.03;1.30;;;11.00;77.10;;;;;;2048976;28;20067;-89
2022/03/14 03:49:32;;;;;;;2.42;1.40;;;11.00;77.20;;;;;;2060609;28;20397;-89
2022/03/14 03:50:33;;;;;;;1.80;1.30;;;11.00;77.20;;;;;;2072412;28;20057;-89
2022/03/14 03:51:34;;;;;;;1.98;1.23;;;11.00;77.20;;;;;;2073163;28;20167;-89
2022/03/14 03:52:34;;;;;;;1.60;1.20;;;11.00;77.30;;;;;;2064137;28;20030;-89
2022/03/14 03:53:35;;;;;;;2.13;1.30;;;11.00;77.40;;;;;;2056835;28;20031;-89
2022/03/14 03:54:36;;;;;;;2.17;1.30;;;11.00;77.40;;;;;;2064711;28;20457;-89
2022/03/14 03:55:37;;;;;;;1.90;1.20;;;11.00;77.50;;;;;;2073321;28;20080;-89
2022/03/14 03:56:38;;;;;;;2.13;1.30;;;11.00;77.50;;;;;;2067105;28;20113;-89
2022/03/14 03:57:39;;;;;;;1.50;1.10;;;11.00;77.60;;;;;;2072714;28;20108;-89
2022/03/14 03:58:40;;;;;;;1.67;1.20;;;11.00;77.60;;;;;;2064879;28;20114;-89
2022/03/14 03:59:40;;;;;;;2.17;1.35;;;11.00;77.60;;;;;;2064841;28;20102;-89
2022/03/14 04:00:41;;;;;;;2.13;1.30;;;11.00;77.60;;;;;;2064252;28;20057;-89
2022/03/14 04:01:43;;;;;;;2.17;1.25;;;11.00;77.60;;;;;;2066210;28;20039;-89
2022/03/14 04:02:44;;;;;;;1.92;1.30;;;11.00;77.70;;;;;;2072245;28;20026;-89
2022/03/14 04:03:53;;;;;;;2.13;1.15;;;11.00;77.80;;;;;;2067026;28;20033;-89
2022/03/14 04:04:55;;;;;;;2.38;1.33;;;11.00;77.80;;;;;;2060845;28;20026;-88
2022/03/14 04:05:56;;;;;;;2.03;1.30;;;11.00;77.80;;;;;;2061286;28;20027;-89
2022/03/14 04:06:57;;;;;;;2.25;1.30;;;11.00;77.90;;;;;;2067252;28;20053;-88
2022/03/14 04:07:59;;;;;;;2.13;1.42;;;11.00;77.90;;;;;;2075245;28;20026;-89
2022/03/14 04:09:01;;;;;;;2.03;1.30;;;11.00;77.90;;;;;;2065133;28;20018;-89
2022/03/14 04:10:03;;;;;;;2.67;1.48;;;11.00;78.00;;;;;;2064478;28;20038;-89
2022/03/14 04:11:06;;;;;;;2.58;1.23;;;11.00;78.00;;;;;;2071912;28;20169;-88
2022/03/14 04:12:07;;;;;;;2.13;1.30;;;11.00;78.10;;;;;;2072974;28;20037;-89
2022/03/14 04:13:09;;;;;;;2.33;1.30;;;11.00;78.10;;;;;;2072912;28;20030;-89
2022/03/14 04:14:10;;;;;;;2.00;1.20;;;11.00;78.10;;;;;;2065212;28;20072;-89
2022/03/14 04:15:12;;;;;;;2.28;1.23;;;10.90;78.20;;;;;;2064903;28;20034;-89
2022/03/14 04:16:17;;;;;;;2.05;1.40;;;10.90;78.20;;;;;;2072274;28;20041;-89
2022/03/14 04:17:19;;;;;;;2.28;1.30;;;10.90;78.90;;;;;;2072520;28;20084;-89
2022/03/14 04:18:25;;;;;;;2.17;1.30;;;10.90;78.40;;;;;;2065295;28;20199;-89
2022/03/14 04:19:25;;;;;;;2.00;1.35;;;10.90;78.40;;;;;;2055877;28;20058;-88
2022/03/14 04:20:26;;;;;;;2.70;1.55;;;10.90;78.50;;;;;;2060068;28;20034;-89
2022/03/14 04:21:27;;;;;;;2.30;1.40;;;10.90;78.50;;;;;;2069250;28;20408;-88
2022/03/14 04:22:29;;;;;;;2.22;1.40;;;10.90;78.50;;;;;;2073850;28;20037;-89
2022/03/14 04:23:31;;;;;;;2.35;1.30;;;10.90;78.60;;;;;;2073411;28;20101;-89
2022/03/14 04:24:36;;;;;;;2.75;1.27;;;10.90;78.60;;;;;;2072875;28;20433;-89
2022/03/14 04:25:36;;;;;;;2.10;1.23;;;10.90;78.70;;;;;;2064160;28;20513;-88
2022/03/14 04:26:38;;;;;;;2.58;1.25;;;10.90;78.70;;;;;;2064674;28;20031;-89
2022/03/14 04:27:40;;;;;;;2.30;1.40;;;10.90;78.80;;;;;;2064339;28;20408;-89
2022/03/14 04:28:41;;;;;;;1.70;1.20;;;10.90;78.80;;;;;;2048094;28;20110;-89
2022/03/14 04:29:42;;;;;;;1.83;1.10;;;10.90;78.80;;;;;;2048489;28;20043;-88
2022/03/14 04:30:43;;;;;;;2.55;1.52;;;10.90;78.80;;;;;;2056536;28;20129;-89
2022/03/14 04:31:43;;;;;;;3.25;1.25;;;10.90;78.90;;;;;;2040575;29;20479;-89
2022/03/14 04:32:44;;;;;;;2.65;1.48;;;10.90;78.90;;;;;;2040109;29;20043;-89
2022/03/14 04:33:45;;;;;;;2.00;1.13;;;10.90;79.00;;;;;;2041758;28;20026;-89
2022/03/14 04:34:45;;;;;;;2.85;1.45;;;10.90;79.00;;;;;;2040571;29;20087;-89
2022/03/14 04:35:46;;;;;;;1.92;1.42;;;10.90;79.10;;;;;;2062681;28;20022;-89
2022/03/14 04:36:50;;;;;;;2.33;1.35;;;10.90;79.10;;;;;;2069634;28;20117;-89
2022/03/14 04:37:50;;;;;;;1.60;1.10;;;10.90;79.20;;;;;;2063070;28;20665;-88
2022/03/14 04:38:51;;;;;;;2.38;1.38;;;10.90;79.20;;;;;;2055874;28;20030;-89
2022/03/14 04:39:53;;;;;;;2.05;1.10;;;10.90;79.20;;;;;;2072454;28;20018;-89
2022/03/14 04:40:54;;;;;;;2.40;1.40;;;10.90;79.20;;;;;;2061750;28;20480;-89
2022/03/14 04:41:55;;;;;;;2.22;1.30;;;10.90;79.20;;;;;;2056408;28;20042;-89
2022/03/14 04:42:55;;;;;;;3.40;1.90;;;10.90;79.80;;;;;;2073082;28;20121;-89
2022/03/14 04:43:56;;;;;;;2.38;1.42;;;10.90;79.20;;;;;;2072393;28;20559;-89
2022/03/14 04:44:56;;;;;;;2.20;1.40;;;10.90;79.20;;;;;;2063643;28;20022;-89
2022/03/14 04:45:57;;;;;;;2.22;1.50;;;10.90;79.20;;;;;;2072233;28;20030;-89
2022/03/14 04:46:58;;;;;;;2.70;1.50;;;10.80;79.10;;;;;;2068428;28;20034;-89
2022/03/14 04:47:59;;;;;;;2.00;1.30;;;10.90;79.20;;;;;;2055642;28;20031;-89
2022/03/14 04:49:00;;;;;;;2.22;1.38;;;10.90;79.20;;;;;;2056380;28;20122;-89
2022/03/14 04:50:02;;;;;;;1.70;1.23;;;10.90;79.20;;;;;;2069529;28;20037;-88
2022/03/14 04:51:02;;;;;;;1.70;1.20;;;10.90;79.80;;;;;;2064079;28;20031;-89
2022/03/14 04:52:04;;;;;;;2.80;1.63;;;10.80;79.10;;;;;;2062031;28;20480;-88
2022/03/14 04:53:06;;;;;;;1.83;1.30;;;10.80;79.10;;;;;;2056216;28;20508;-88
2022/03/14 04:54:06;;;;;;;2.03;1.30;;;10.90;79.10;;;;;;2064695;28;20029;-88
2022/03/14 04:55:08;;;;;;;2.40;1.50;;;10.80;79.70;;;;;;2072234;28;20030;-89
2022/03/14 04:56:08;;;;;;;2.55;1.50;;;10.80;79.10;;;;;;2072187;28;20108;-88
2022/03/14 04:57:09;;;;;;;2.58;1.60;;;10.80;79.10;;;;;;2072356;28;20174;-89
2022/03/14 04:58:12;;;;;;;2.30;1.55;;;10.80;79.20;;;;;;2064251;28;20050;-89
2022/03/14 04:59:13;;;;;;;2.58;1.67;;;10.80;79.20;;;;;;2064365;28;20429;-88
2022/03/14 05:00:14;;;;;;;2.65;1.73;;;10.80;79.20;;;;;;2071621;28;20033;-88
2022/03/14 05:01:14;;;;;;;2.38;1.50;;;10.70;79.20;;;;;;2063778;28;20034;-88
2022/03/14 05:02:20;;;;;;;2.55;1.60;;;10.70;79.20;;;;;;2056369;28;20118;-88
2022/03/14 05:03:21;;;;;;;2.72;1.90;;;10.70;79.20;;;;;;2049682;28;20051;-89
2022/03/14 05:04:22;;;;;;;3.25;1.90;;;10.70;79.30;;;;;;2064217;28;20038;-89
2022/03/14 05:05:23;;;;;;;3.10;2.08;;;10.70;79.50;;;;;;2064862;28;20479;-89
2022/03/14 05:06:23;;;;;;;3.10;2.20;;;10.60;79.60;;;;;;2055993;28;20082;-88
2022/03/14 05:07:25;;;;;;;3.30;2.20;;;10.60;79.80;;;;;;2062443;28;20540;-87
2022/03/14 05:08:25;;;;;;;2.95;2.10;;;10.60;80.10;;;;;;2061129;28;20027;-89
2022/03/14 05:09:26;;;;;;;3.30;2.20;;;10.50;80.30;;;;;;2048310;28;20515;-89
2022/03/14 05:10:27;;;;;;;3.40;2.40;;;10.50;80.60;;;;;;2054829;28;20039;-88
2022/03/14 05:11:28;;;;;;;3.58;2.30;;;10.40;80.80;;;;;;2056001;28;20075;-88
2022/03/14 05:12:34;;;;;;;3.47;2.47;;;10.30;81.00;;;;;;2048093;28;20039;-89
2022/03/14 05:13:34;;;;;;;3.30;2.30;;;10.20;81.30;;;;;;2057002;28;20023;-89
2022/03/14 05:14:35;;;;;;;2.58;2.00;;;10.20;81.50;;;;;;2056491;28;20039;-89
2022/03/14 05:15:36;;;;;;;3.20;2.30;;;10.20;81.70;;;;;;2064339;28;20061;-89
2022/03/14 05:16:37;;;;;;;3.05;2.10;;;10.10;82.00;;;;;;2063890;28;20026;-89
2022/03/14 05:17:37;;;;;;;2.92;1.98;;;10.10;82.20;;;;;;2063934;28;20505;-89
2022/03/14 05:18:38;;;;;;;3.13;2.00;;;10.10;82.30;;;;;;2060527;28;20121;-89
2022/03/14 05:19:39;;;;;;;3.47;2.20;;;10.10;82.40;;;;;;2056302;28;20031;-89